sensor_id;sensor_type;location;lat;lon;timestamp;temperature;humidity
9973;DHT22;5027;53.560;10.062;2022-08-19T00:01:28;24.60;99.90
9973;DHT22;5027;53.560;10.062;2022-08-19T00:04:03;24.70;99.90
9973;DHT22;5027;53.560;10.062;2022-08-19T00:06:31;24.90;99.90
9973;DHT22;5027;53.560;10.062;2022-08-19T00:08:58;24.70;99.90
9973;DHT22;5027;53.560;10.062;2022-08-19T00:11:27;24.70;99.90
9973;DHT22;5027;53.560;10.062;2022-08-19T00:13:55;24.60;99.90
9973;DHT22;5027;53.560;10.062;2022-08-19T00:16:24;24.70;99.90
9973;DHT22;5027;53.560;10.062;2022-08-19T00:18:53;24.70;99.90
9973;DHT22;5027;53.560;10.062;2022-08-19T00:21:22;24.60;99.90
9973;DHT22;5027;53.560;10.062;2022-08-19T00:23:49;24.60;99.90
9973;DHT22;5027;53.560;10.062;2022-08-19T00:26:16;24.70;99.90
9973;DHT22;5027;53.560;10.062;2022-08-19T00:28:42;24.60;99.90
9973;DHT22;5027;53.560;10.062;2022-08-19T00:31:09;24.50;99.90
9973;DHT22;5027;53.560;10.062;2022-08-19T00:33:36;24.50;99.90
9973;DHT22;5027;53.560;10.062;2022-08-19T00:36:06;24.50;99.90
9973;DHT22;5027;53.560;10.062;2022-08-19T00:38:34;24.40;99.90
9973;DHT22;5027;53.560;10.062;2022-08-19T00:41:05;24.30;99.90
9973;DHT22;5027;53.560;10.062;2022-08-19T00:43:32;24.30;99.90
9973;DHT22;5027;53.560;10.062;2022-08-19T00:45:59;24.40;99.90
9973;DHT22;5027;53.560;10.062;2022-08-19T00:48:27;24.30;99.90
9973;DHT22;5027;53.560;10.062;2022-08-19T00:50:54;24.50;99.90
9973;DHT22;5027;53.560;10.062;2022-08-19T00:53:24;24.60;99.90
9973;DHT22;5027;53.560;10.062;2022-08-19T00:55:55;24.70;99.90
9973;DHT22;5027;53.560;10.062;2022-08-19T00:58:26;24.70;99.90
9973;DHT22;5027;53.560;10.062;2022-08-19T01:00:54;24.70;99.90
9973;DHT22;5027;53.560;10.062;2022-08-19T01:03:22;24.70;99.90
9973;DHT22;5027;53.560;10.062;2022-08-19T01:05:50;24.70;99.90
9973;DHT22;5027;53.560;10.062;2022-08-19T01:08:19;24.70;99.90
9973;DHT22;5027;53.560;10.062;2022-08-19T01:10:54;24.60;99.90
9973;DHT22;5027;53.560;10.062;2022-08-19T01:13:33;24.50;99.90
9973;DHT22;5027;53.560;10.062;2022-08-19T01:16:17;24.40;99.90
9973;DHT22;5027;53.560;10.062;2022-08-19T01:18:44;24.40;99.90
9973;DHT22;5027;53.560;10.062;2022-08-19T01:21:22;24.50;99.90
9973;DHT22;5027;53.560;10.062;2022-08-19T01:23:51;24.40;99.90
9973;DHT22;5027;53.560;10.062;2022-08-19T01:26:20;24.30;99.90
9973;DHT22;5027;53.560;10.062;2022-08-19T01:28:52;24.20;99.90
9973;DHT22;5027;53.560;10.062;2022-08-19T01:31:26;24.30;99.90
9973;DHT22;5027;53.560;10.062;2022-08-19T01:33:55;24.30;99.90
9973;DHT22;5027;53.560;10.062;2022-08-19T01:39:06;24.20;99.90
9973;DHT22;5027;53.560;10.062;2022-08-19T01:41:34;24.20;99.90
9973;DHT22;5027;53.560;10.062;2022-08-19T01:44:02;24.20;99.90
9973;DHT22;5027;53.560;10.062;2022-08-19T01:46:46;24.20;99.90
9973;DHT22;5027;53.560;10.062;2022-08-19T01:49:14;24.20;99.90
9973;DHT22;5027;53.560;10.062;2022-08-19T01:51:41;24.20;99.90
9973;DHT22;5027;53.560;10.062;2022-08-19T01:54:09;24.20;99.90
9973;DHT22;5027;53.560;10.062;2022-08-19T01:56:36;24.20;99.90
9973;DHT22;5027;53.560;10.062;2022-08-19T01:59:08;24.20;99.90
9973;DHT22;5027;53.560;10.062;2022-08-19T02:01:36;24.20;99.90
9973;DHT22;5027;53.560;10.062;2022-08-19T02:04:03;24.20;99.90
9973;DHT22;5027;53.560;10.062;2022-08-19T02:06:31;24.20;99.90
9973;DHT22;5027;53.560;10.062;2022-08-19T02:08:59;24.10;99.90
9973;DHT22;5027;53.560;10.062;2022-08-19T02:11:34;24.10;99.90
9973;DHT22;5027;53.560;10.062;2022-08-19T02:14:05;24.10;99.90
9973;DHT22;5027;53.560;10.062;2022-08-19T02:16:32;24.20;99.90
9973;DHT22;5027;53.560;10.062;2022-08-19T02:18:59;24.10;99.90
9973;DHT22;5027;53.560;10.062;2022-08-19T02:21:29;24.10;99.90
9973;DHT22;5027;53.560;10.062;2022-08-19T02:23:57;24.10;99.90
9973;DHT22;5027;53.560;10.062;2022-08-19T02:26:24;24.30;99.90
9973;DHT22;5027;53.560;10.062;2022-08-19T02:28:53;24.40;99.90
9973;DHT22;5027;53.560;10.062;2022-08-19T02:31:22;24.30;99.90
9973;DHT22;5027;53.560;10.062;2022-08-19T02:33:51;24.20;99.90
9973;DHT22;5027;53.560;10.062;2022-08-19T02:36:23;24.10;99.90
9973;DHT22;5027;53.560;10.062;2022-08-19T02:38:50;24.20;99.90
9973;DHT22;5027;53.560;10.062;2022-08-19T02:41:31;24.20;99.90
9973;DHT22;5027;53.560;10.062;2022-08-19T02:44:00;24.20;99.90
9973;DHT22;5027;53.560;10.062;2022-08-19T02:46:50;24.20;99.90
9973;DHT22;5027;53.560;10.062;2022-08-19T02:49:18;24.20;99.90
9973;DHT22;5027;53.560;10.062;2022-08-19T02:51:46;24.20;99.90
9973;DHT22;5027;53.560;10.062;2022-08-19T02:54:13;24.20;99.90
9973;DHT22;5027;53.560;10.062;2022-08-19T02:56:41;24.30;99.90
9973;DHT22;5027;53.560;10.062;2022-08-19T02:59:08;24.30;99.90
9973;DHT22;5027;53.560;10.062;2022-08-19T03:01:38;24.30;99.90
9973;DHT22;5027;53.560;10.062;2022-08-19T03:04:07;24.40;99.90
9973;DHT22;5027;53.560;10.062;2022-08-19T03:06:39;24.30;99.90
9973;DHT22;5027;53.560;10.062;2022-08-19T03:09:05;24.20;99.90
9973;DHT22;5027;53.560;10.062;2022-08-19T03:11:33;24.10;99.90
9973;DHT22;5027;53.560;10.062;2022-08-19T03:14:01;24.10;99.90
9973;DHT22;5027;53.560;10.062;2022-08-19T03:16:30;24.00;99.90
9973;DHT22;5027;53.560;10.062;2022-08-19T03:19:00;24.00;99.90
9973;DHT22;5027;53.560;10.062;2022-08-19T03:21:30;24.00;99.90
9973;DHT22;5027;53.560;10.062;2022-08-19T03:23:59;23.90;99.90
9973;DHT22;5027;53.560;10.062;2022-08-19T03:26:26;23.90;99.90
9973;DHT22;5027;53.560;10.062;2022-08-19T03:28:53;23.80;99.90
9973;DHT22;5027;53.560;10.062;2022-08-19T03:31:26;23.80;99.90
9973;DHT22;5027;53.560;10.062;2022-08-19T03:34:29;23.80;99.90
9973;DHT22;5027;53.560;10.062;2022-08-19T03:36:58;23.80;99.90
9973;DHT22;5027;53.560;10.062;2022-08-19T03:39:26;23.90;99.90
9973;DHT22;5027;53.560;10.062;2022-08-19T03:41:54;24.00;99.90
9973;DHT22;5027;53.560;10.062;2022-08-19T03:44:43;24.00;99.90
9973;DHT22;5027;53.560;10.062;2022-08-19T03:47:11;24.00;99.90
9973;DHT22;5027;53.560;10.062;2022-08-19T03:49:42;24.00;99.90
9973;DHT22;5027;53.560;10.062;2022-08-19T03:52:09;24.00;99.90
9973;DHT22;5027;53.560;10.062;2022-08-19T03:54:36;24.00;99.90
9973;DHT22;5027;53.560;10.062;2022-08-19T03:57:05;24.00;99.90
9973;DHT22;5027;53.560;10.062;2022-08-19T03:59:34;24.00;99.90
9973;DHT22;5027;53.560;10.062;2022-08-19T04:02:07;24.10;99.90
9973;DHT22;5027;53.560;10.062;2022-08-19T04:04:39;24.10;99.90
9973;DHT22;5027;53.560;10.062;2022-08-19T04:07:06;24.10;99.90
9973;DHT22;5027;53.560;10.062;2022-08-19T04:09:34;24.10;99.90
9973;DHT22;5027;53.560;10.062;2022-08-19T04:12:03;24.20;99.90
9973;DHT22;5027;53.560;10.062;2022-08-19T04:14:31;24.30;99.90
9973;DHT22;5027;53.560;10.062;2022-08-19T04:17:00;24.40;99.90
9973;DHT22;5027;53.560;10.062;2022-08-19T04:19:29;24.20;99.90
9973;DHT22;5027;53.560;10.062;2022-08-19T04:21:56;24.20;99.90
9973;DHT22;5027;53.560;10.062;2022-08-19T04:24:24;24.20;99.90
9973;DHT22;5027;53.560;10.062;2022-08-19T04:26:50;24.20;99.90
9973;DHT22;5027;53.560;10.062;2022-08-19T04:29:19;24.20;99.90
9973;DHT22;5027;53.560;10.062;2022-08-19T04:31:48;24.40;99.90
9973;DHT22;5027;53.560;10.062;2022-08-19T04:34:17;24.40;99.90
9973;DHT22;5027;53.560;10.062;2022-08-19T04:36:45;24.40;99.90
9973;DHT22;5027;53.560;10.062;2022-08-19T04:39:15;24.50;99.90
9973;DHT22;5027;53.560;10.062;2022-08-19T04:41:43;24.40;99.90
9973;DHT22;5027;53.560;10.062;2022-08-19T04:44:39;24.30;99.90
9973;DHT22;5027;53.560;10.062;2022-08-19T04:47:11;24.40;99.90
9973;DHT22;5027;53.560;10.062;2022-08-19T04:49:38;24.40;99.90
9973;DHT22;5027;53.560;10.062;2022-08-19T04:52:05;24.40;99.90
9973;DHT22;5027;53.560;10.062;2022-08-19T04:54:31;24.50;99.90
9973;DHT22;5027;53.560;10.062;2022-08-19T04:57:06;24.50;99.90
9973;DHT22;5027;53.560;10.062;2022-08-19T04:59:35;24.40;99.90
9973;DHT22;5027;53.560;10.062;2022-08-19T05:02:03;24.40;99.90
9973;DHT22;5027;53.560;10.062;2022-08-19T05:04:30;24.20;99.90
9973;DHT22;5027;53.560;10.062;2022-08-19T05:06:58;24.10;99.90
9973;DHT22;5027;53.560;10.062;2022-08-19T05:09:27;24.20;99.90
9973;DHT22;5027;53.560;10.062;2022-08-19T05:12:14;24.30;99.90
9973;DHT22;5027;53.560;10.062;2022-08-19T05:14:41;24.30;99.90
9973;DHT22;5027;53.560;10.062;2022-08-19T05:17:08;24.50;99.90
9973;DHT22;5027;53.560;10.062;2022-08-19T05:19:53;24.30;99.90
9973;DHT22;5027;53.560;10.062;2022-08-19T05:22:39;24.30;99.90
9973;DHT22;5027;53.560;10.062;2022-08-19T05:25:09;24.20;99.90
9973;DHT22;5027;53.560;10.062;2022-08-19T05:27:40;24.20;99.90
9973;DHT22;5027;53.560;10.062;2022-08-19T05:30:07;24.20;99.90
9973;DHT22;5027;53.560;10.062;2022-08-19T05:32:34;24.30;99.90
9973;DHT22;5027;53.560;10.062;2022-08-19T05:35:02;24.40;99.90
9973;DHT22;5027;53.560;10.062;2022-08-19T05:37:29;24.30;99.90
9973;DHT22;5027;53.560;10.062;2022-08-19T05:39:56;24.30;99.90
9973;DHT22;5027;53.560;10.062;2022-08-19T05:42:23;24.30;99.90
9973;DHT22;5027;53.560;10.062;2022-08-19T05:44:50;24.20;99.90
9973;DHT22;5027;53.560;10.062;2022-08-19T05:47:17;24.10;99.90
9973;DHT22;5027;53.560;10.062;2022-08-19T05:49:46;24.20;99.90
9973;DHT22;5027;53.560;10.062;2022-08-19T05:52:14;24.10;99.90
9973;DHT22;5027;53.560;10.062;2022-08-19T05:54:44;24.10;99.90
9973;DHT22;5027;53.560;10.062;2022-08-19T05:57:17;24.10;99.90
9973;DHT22;5027;53.560;10.062;2022-08-19T05:59:44;24.00;99.90
9973;DHT22;5027;53.560;10.062;2022-08-19T06:02:14;24.00;99.90
9973;DHT22;5027;53.560;10.062;2022-08-19T06:04:41;24.00;99.90
9973;DHT22;5027;53.560;10.062;2022-08-19T06:07:10;24.00;99.90
9973;DHT22;5027;53.560;10.062;2022-08-19T06:09:41;24.00;99.90
9973;DHT22;5027;53.560;10.062;2022-08-19T06:12:32;24.10;99.90
9973;DHT22;5027;53.560;10.062;2022-08-19T06:15:05;24.10;99.90
9973;DHT22;5027;53.560;10.062;2022-08-19T06:17:32;24.30;99.90
9973;DHT22;5027;53.560;10.062;2022-08-19T06:20:06;24.20;99.90
9973;DHT22;5027;53.560;10.062;2022-08-19T06:22:41;24.00;99.90
9973;DHT22;5027;53.560;10.062;2022-08-19T06:25:08;24.00;99.90
9973;DHT22;5027;53.560;10.062;2022-08-19T06:27:38;24.10;99.90
9973;DHT22;5027;53.560;10.062;2022-08-19T06:30:26;24.10;99.90
9973;DHT22;5027;53.560;10.062;2022-08-19T06:32:53;24.10;99.90
9973;DHT22;5027;53.560;10.062;2022-08-19T06:35:19;24.00;99.90
9973;DHT22;5027;53.560;10.062;2022-08-19T06:37:46;24.00;99.90
9973;DHT22;5027;53.560;10.062;2022-08-19T06:40:13;24.00;99.90
9973;DHT22;5027;53.560;10.062;2022-08-19T06:42:40;24.00;99.90
9973;DHT22;5027;53.560;10.062;2022-08-19T06:45:21;24.00;99.90
9973;DHT22;5027;53.560;10.062;2022-08-19T06:47:51;24.00;99.90
9973;DHT22;5027;53.560;10.062;2022-08-19T06:50:23;24.00;99.90
9973;DHT22;5027;53.560;10.062;2022-08-19T06:52:51;24.00;99.90
9973;DHT22;5027;53.560;10.062;2022-08-19T06:55:18;24.10;99.90
9973;DHT22;5027;53.560;10.062;2022-08-19T06:57:46;24.10;99.90
9973;DHT22;5027;53.560;10.062;2022-08-19T07:00:13;24.20;99.90
9973;DHT22;5027;53.560;10.062;2022-08-19T07:02:42;24.20;99.90
9973;DHT22;5027;53.560;10.062;2022-08-19T07:05:21;24.20;99.90
9973;DHT22;5027;53.560;10.062;2022-08-19T07:07:48;24.10;99.90
9973;DHT22;5027;53.560;10.062;2022-08-19T07:10:17;24.10;99.90
9973;DHT22;5027;53.560;10.062;2022-08-19T07:12:44;24.20;99.90
9973;DHT22;5027;53.560;10.062;2022-08-19T07:15:14;24.10;99.90
9973;DHT22;5027;53.560;10.062;2022-08-19T07:17:47;24.00;99.90
9973;DHT22;5027;53.560;10.062;2022-08-19T07:20:19;24.00;99.90
9973;DHT22;5027;53.560;10.062;2022-08-19T07:22:45;24.00;99.90
9973;DHT22;5027;53.560;10.062;2022-08-19T07:25:12;24.00;99.90
9973;DHT22;5027;53.560;10.062;2022-08-19T07:27:39;24.10;99.90
9973;DHT22;5027;53.560;10.062;2022-08-19T07:30:08;24.10;99.90
9973;DHT22;5027;53.560;10.062;2022-08-19T07:32:38;24.20;99.90
9973;DHT22;5027;53.560;10.062;2022-08-19T07:35:06;24.30;99.90
9973;DHT22;5027;53.560;10.062;2022-08-19T07:37:33;24.40;99.90
9973;DHT22;5027;53.560;10.062;2022-08-19T07:40:03;24.40;99.90
9973;DHT22;5027;53.560;10.062;2022-08-19T07:42:31;24.20;99.90
9973;DHT22;5027;53.560;10.062;2022-08-19T07:44:58;24.10;99.90
9973;DHT22;5027;53.560;10.062;2022-08-19T07:47:25;24.20;99.90
9973;DHT22;5027;53.560;10.062;2022-08-19T07:50:14;24.20;99.90
9973;DHT22;5027;53.560;10.062;2022-08-19T07:52:40;24.20;99.90
9973;DHT22;5027;53.560;10.062;2022-08-19T07:55:14;24.20;99.90
9973;DHT22;5027;53.560;10.062;2022-08-19T07:58:01;24.10;99.90
9973;DHT22;5027;53.560;10.062;2022-08-19T08:00:30;24.00;99.90
9973;DHT22;5027;53.560;10.062;2022-08-19T08:02:57;23.90;99.90
9973;DHT22;5027;53.560;10.062;2022-08-19T08:05:24;23.90;99.90
9973;DHT22;5027;53.560;10.062;2022-08-19T08:08:11;23.80;99.90
9973;DHT22;5027;53.560;10.062;2022-08-19T08:10:58;23.90;99.90
9973;DHT22;5027;53.560;10.062;2022-08-19T08:13:25;23.90;99.90
9973;DHT22;5027;53.560;10.062;2022-08-19T08:15:53;23.80;99.90
9973;DHT22;5027;53.560;10.062;2022-08-19T08:18:26;23.80;99.90
9973;DHT22;5027;53.560;10.062;2022-08-19T08:20:56;23.80;99.90
9973;DHT22;5027;53.560;10.062;2022-08-19T08:23:24;23.80;99.90
9973;DHT22;5027;53.560;10.062;2022-08-19T08:25:57;23.80;99.90
9973;DHT22;5027;53.560;10.062;2022-08-19T08:28:25;23.80;99.90
9973;DHT22;5027;53.560;10.062;2022-08-19T08:30:55;23.90;99.90
9973;DHT22;5027;53.560;10.062;2022-08-19T08:33:25;23.90;99.90
9973;DHT22;5027;53.560;10.062;2022-08-19T08:36:04;23.80;99.90
9973;DHT22;5027;53.560;10.062;2022-08-19T08:38:32;23.70;99.90
9973;DHT22;5027;53.560;10.062;2022-08-19T08:43:55;23.70;99.90
9973;DHT22;5027;53.560;10.062;2022-08-19T08:46:40;23.70;99.90
9973;DHT22;5027;53.560;10.062;2022-08-19T08:49:31;23.70;99.90
9973;DHT22;5027;53.560;10.062;2022-08-19T08:52:24;23.70;99.90
9973;DHT22;5027;53.560;10.062;2022-08-19T08:55:00;23.60;99.90
9973;DHT22;5027;53.560;10.062;2022-08-19T09:00:15;23.80;99.90
9973;DHT22;5027;53.560;10.062;2022-08-19T09:02:43;23.90;99.90
9973;DHT22;5027;53.560;10.062;2022-08-19T09:05:17;23.90;99.90
9973;DHT22;5027;53.560;10.062;2022-08-19T09:10:49;23.90;99.90
9973;DHT22;5027;53.560;10.062;2022-08-19T09:13:44;24.00;99.90
9973;DHT22;5027;53.560;10.062;2022-08-19T09:16:18;24.00;99.90
9973;DHT22;5027;53.560;10.062;2022-08-19T09:18:56;24.10;99.90
9973;DHT22;5027;53.560;10.062;2022-08-19T09:21:24;24.10;99.90
9973;DHT22;5027;53.560;10.062;2022-08-19T09:23:59;24.00;99.90
9973;DHT22;5027;53.560;10.062;2022-08-19T09:26:29;23.90;99.90
9973;DHT22;5027;53.560;10.062;2022-08-19T09:29:16;23.80;99.90
9973;DHT22;5027;53.560;10.062;2022-08-19T09:31:43;23.80;99.90
9973;DHT22;5027;53.560;10.062;2022-08-19T09:34:09;23.70;99.90
9973;DHT22;5027;53.560;10.062;2022-08-19T09:36:48;23.80;99.90
9973;DHT22;5027;53.560;10.062;2022-08-19T09:39:19;24.00;99.90
9973;DHT22;5027;53.560;10.062;2022-08-19T09:41:46;24.00;99.90
9973;DHT22;5027;53.560;10.062;2022-08-19T09:44:14;24.00;99.90
9973;DHT22;5027;53.560;10.062;2022-08-19T09:46:41;24.10;99.90
9973;DHT22;5027;53.560;10.062;2022-08-19T09:49:08;24.10;99.90
9973;DHT22;5027;53.560;10.062;2022-08-19T09:51:35;24.00;99.90
9973;DHT22;5027;53.560;10.062;2022-08-19T09:54:03;24.00;99.90
9973;DHT22;5027;53.560;10.062;2022-08-19T09:56:32;23.90;99.90
9973;DHT22;5027;53.560;10.062;2022-08-19T09:59:00;24.00;99.90
9973;DHT22;5027;53.560;10.062;2022-08-19T10:01:29;24.10;99.90
9973;DHT22;5027;53.560;10.062;2022-08-19T10:03:57;24.00;99.90
9973;DHT22;5027;53.560;10.062;2022-08-19T10:06:26;23.90;99.90
9973;DHT22;5027;53.560;10.062;2022-08-19T10:09:12;23.80;99.90
9973;DHT22;5027;53.560;10.062;2022-08-19T10:11:41;23.80;99.90
9973;DHT22;5027;53.560;10.062;2022-08-19T10:14:18;23.80;99.90
9973;DHT22;5027;53.560;10.062;2022-08-19T10:16:48;23.80;99.90
9973;DHT22;5027;53.560;10.062;2022-08-19T10:19:15;24.00;99.90
9973;DHT22;5027;53.560;10.062;2022-08-19T10:21:51;23.90;99.90
9973;DHT22;5027;53.560;10.062;2022-08-19T10:24:18;23.90;99.90
9973;DHT22;5027;53.560;10.062;2022-08-19T10:26:46;23.90;99.90
9973;DHT22;5027;53.560;10.062;2022-08-19T10:29:24;24.00;99.90
9973;DHT22;5027;53.560;10.062;2022-08-19T10:32:04;24.00;99.90
9973;DHT22;5027;53.560;10.062;2022-08-19T10:34:39;24.10;99.90
9973;DHT22;5027;53.560;10.062;2022-08-19T10:37:15;24.10;99.90
9973;DHT22;5027;53.560;10.062;2022-08-19T10:39:49;24.00;99.90
9973;DHT22;5027;53.560;10.062;2022-08-19T10:42:17;24.10;99.90
9973;DHT22;5027;53.560;10.062;2022-08-19T10:44:45;24.00;99.90
9973;DHT22;5027;53.560;10.062;2022-08-19T10:47:13;24.00;99.90
9973;DHT22;5027;53.560;10.062;2022-08-19T10:49:51;24.00;99.90
9973;DHT22;5027;53.560;10.062;2022-08-19T10:52:46;24.00;99.90
9973;DHT22;5027;53.560;10.062;2022-08-19T10:55:16;24.00;99.90
9973;DHT22;5027;53.560;10.062;2022-08-19T10:58:01;23.90;99.90
9973;DHT22;5027;53.560;10.062;2022-08-19T11:00:28;23.90;99.90
9973;DHT22;5027;53.560;10.062;2022-08-19T11:02:57;23.90;99.90
9973;DHT22;5027;53.560;10.062;2022-08-19T11:05:24;23.90;99.90
9973;DHT22;5027;53.560;10.062;2022-08-19T11:07:50;24.00;99.90
9973;DHT22;5027;53.560;10.062;2022-08-19T11:10:18;24.00;99.90
9973;DHT22;5027;53.560;10.062;2022-08-19T11:12:48;23.90;99.90
9973;DHT22;5027;53.560;10.062;2022-08-19T11:15:15;23.90;99.90
9973;DHT22;5027;53.560;10.062;2022-08-19T11:17:43;23.90;99.90
9973;DHT22;5027;53.560;10.062;2022-08-19T11:20:14;24.10;99.90
9973;DHT22;5027;53.560;10.062;2022-08-19T11:22:41;24.10;99.90
9973;DHT22;5027;53.560;10.062;2022-08-19T11:25:10;24.10;99.90
9973;DHT22;5027;53.560;10.062;2022-08-19T11:27:41;24.20;99.90
9973;DHT22;5027;53.560;10.062;2022-08-19T11:30:10;24.10;99.90
9973;DHT22;5027;53.560;10.062;2022-08-19T11:32:40;24.20;99.90
9973;DHT22;5027;53.560;10.062;2022-08-19T11:35:12;24.00;99.90
9973;DHT22;5027;53.560;10.062;2022-08-19T11:37:40;24.00;99.90
9973;DHT22;5027;53.560;10.062;2022-08-19T11:40:07;24.10;99.90
9973;DHT22;5027;53.560;10.062;2022-08-19T11:42:34;24.20;99.90
9973;DHT22;5027;53.560;10.062;2022-08-19T11:45:21;24.20;99.90
9973;DHT22;5027;53.560;10.062;2022-08-19T11:47:48;24.10;99.90
9973;DHT22;5027;53.560;10.062;2022-08-19T11:50:15;24.10;99.90
9973;DHT22;5027;53.560;10.062;2022-08-19T11:52:43;24.20;99.90
9973;DHT22;5027;53.560;10.062;2022-08-19T11:55:12;24.30;99.90
9973;DHT22;5027;53.560;10.062;2022-08-19T11:57:40;24.40;99.90
9973;DHT22;5027;53.560;10.062;2022-08-19T12:00:08;24.40;99.90
9973;DHT22;5027;53.560;10.062;2022-08-19T12:02:36;24.40;99.90
9973;DHT22;5027;53.560;10.062;2022-08-19T12:05:03;24.50;99.90
9973;DHT22;5027;53.560;10.062;2022-08-19T12:07:34;24.50;99.90
9973;DHT22;5027;53.560;10.062;2022-08-19T12:10:04;24.50;99.90
9973;DHT22;5027;53.560;10.062;2022-08-19T12:12:31;24.50;99.90
9973;DHT22;5027;53.560;10.062;2022-08-19T12:14:57;24.50;99.90
9973;DHT22;5027;53.560;10.062;2022-08-19T12:17:27;24.50;99.90
9973;DHT22;5027;53.560;10.062;2022-08-19T12:19:55;24.50;99.90
9973;DHT22;5027;53.560;10.062;2022-08-19T12:22:22;24.50;99.90
9973;DHT22;5027;53.560;10.062;2022-08-19T12:24:48;24.50;99.90
9973;DHT22;5027;53.560;10.062;2022-08-19T12:27:17;24.50;99.90
9973;DHT22;5027;53.560;10.062;2022-08-19T12:30:05;24.40;99.90
9973;DHT22;5027;53.560;10.062;2022-08-19T12:32:33;24.50;99.90
9973;DHT22;5027;53.560;10.062;2022-08-19T12:35:00;24.40;99.90
9973;DHT22;5027;53.560;10.062;2022-08-19T12:37:27;24.50;99.90
9973;DHT22;5027;53.560;10.062;2022-08-19T12:39:54;24.50;99.90
9973;DHT22;5027;53.560;10.062;2022-08-19T12:42:21;24.50;99.90
9973;DHT22;5027;53.560;10.062;2022-08-19T12:44:49;24.50;99.90
9973;DHT22;5027;53.560;10.062;2022-08-19T12:47:16;24.50;99.90
9973;DHT22;5027;53.560;10.062;2022-08-19T12:49:45;24.50;99.90
9973;DHT22;5027;53.560;10.062;2022-08-19T12:52:22;24.50;99.90
9973;DHT22;5027;53.560;10.062;2022-08-19T12:54:51;24.50;99.90
9973;DHT22;5027;53.560;10.062;2022-08-19T12:57:21;24.50;99.90
9973;DHT22;5027;53.560;10.062;2022-08-19T13:00:00;24.50;99.90
9973;DHT22;5027;53.560;10.062;2022-08-19T13:02:30;24.50;99.90
9973;DHT22;5027;53.560;10.062;2022-08-19T13:05:07;24.50;99.90
9973;DHT22;5027;53.560;10.062;2022-08-19T13:07:36;24.50;99.90
9973;DHT22;5027;53.560;10.062;2022-08-19T13:10:06;24.50;99.90
9973;DHT22;5027;53.560;10.062;2022-08-19T13:12:34;24.50;99.90
9973;DHT22;5027;53.560;10.062;2022-08-19T13:15:01;24.50;99.90
9973;DHT22;5027;53.560;10.062;2022-08-19T13:17:28;24.50;99.90
9973;DHT22;5027;53.560;10.062;2022-08-19T13:19:54;24.50;99.90
9973;DHT22;5027;53.560;10.062;2022-08-19T13:22:21;24.50;99.90
9973;DHT22;5027;53.560;10.062;2022-08-19T13:24:48;24.50;99.90
9973;DHT22;5027;53.560;10.062;2022-08-19T13:27:14;24.50;99.90
9973;DHT22;5027;53.560;10.062;2022-08-19T13:29:42;24.50;99.90
9973;DHT22;5027;53.560;10.062;2022-08-19T13:32:29;24.50;99.90
9973;DHT22;5027;53.560;10.062;2022-08-19T13:35:15;24.50;99.90
9973;DHT22;5027;53.560;10.062;2022-08-19T13:37:43;24.50;99.90
9973;DHT22;5027;53.560;10.062;2022-08-19T13:40:16;24.50;99.90
9973;DHT22;5027;53.560;10.062;2022-08-19T13:42:46;24.50;99.90
9973;DHT22;5027;53.560;10.062;2022-08-19T13:45:18;24.50;99.90
9973;DHT22;5027;53.560;10.062;2022-08-19T13:47:46;24.50;99.90
9973;DHT22;5027;53.560;10.062;2022-08-19T13:50:16;24.50;99.90
9973;DHT22;5027;53.560;10.062;2022-08-19T13:52:43;24.50;99.90
9973;DHT22;5027;53.560;10.062;2022-08-19T13:55:11;24.50;99.90
9973;DHT22;5027;53.560;10.062;2022-08-19T13:57:38;24.50;99.90
9973;DHT22;5027;53.560;10.062;2022-08-19T14:00:15;24.50;99.90
9973;DHT22;5027;53.560;10.062;2022-08-19T14:02:46;24.50;99.90
9973;DHT22;5027;53.560;10.062;2022-08-19T14:05:15;24.50;99.90
9973;DHT22;5027;53.560;10.062;2022-08-19T14:07:42;24.40;99.90
9973;DHT22;5027;53.560;10.062;2022-08-19T14:10:11;24.50;99.90
9973;DHT22;5027;53.560;10.062;2022-08-19T14:12:39;24.40;99.90
9973;DHT22;5027;53.560;10.062;2022-08-19T14:15:07;24.40;99.90
9973;DHT22;5027;53.560;10.062;2022-08-19T14:17:37;24.50;99.90
9973;DHT22;5027;53.560;10.062;2022-08-19T14:20:05;24.40;99.90
9973;DHT22;5027;53.560;10.062;2022-08-19T14:22:39;24.40;99.90
9973;DHT22;5027;53.560;10.062;2022-08-19T14:25:08;24.50;99.90
9973;DHT22;5027;53.560;10.062;2022-08-19T14:27:36;24.50;99.90
9973;DHT22;5027;53.560;10.062;2022-08-19T14:30:05;24.50;99.90
9973;DHT22;5027;53.560;10.062;2022-08-19T14:32:33;24.50;99.90
9973;DHT22;5027;53.560;10.062;2022-08-19T14:35:04;24.50;99.90
9973;DHT22;5027;53.560;10.062;2022-08-19T14:37:33;24.50;99.90
9973;DHT22;5027;53.560;10.062;2022-08-19T14:40:12;24.50;99.90
9973;DHT22;5027;53.560;10.062;2022-08-19T14:42:40;24.50;99.90
9973;DHT22;5027;53.560;10.062;2022-08-19T14:45:08;24.50;99.90
9973;DHT22;5027;53.560;10.062;2022-08-19T14:47:35;24.40;99.90
9973;DHT22;5027;53.560;10.062;2022-08-19T14:50:07;24.50;99.90
9973;DHT22;5027;53.560;10.062;2022-08-19T14:52:37;24.50;99.90
9973;DHT22;5027;53.560;10.062;2022-08-19T14:55:04;24.50;99.90
9973;DHT22;5027;53.560;10.062;2022-08-19T14:57:33;24.40;99.90
9973;DHT22;5027;53.560;10.062;2022-08-19T15:00:00;24.50;99.90
9973;DHT22;5027;53.560;10.062;2022-08-19T15:02:27;24.50;99.90
9973;DHT22;5027;53.560;10.062;2022-08-19T15:05:01;24.40;99.90
9973;DHT22;5027;53.560;10.062;2022-08-19T15:07:28;24.50;99.90
9973;DHT22;5027;53.560;10.062;2022-08-19T15:09:56;24.50;99.90
9973;DHT22;5027;53.560;10.062;2022-08-19T15:12:23;24.50;99.90
9973;DHT22;5027;53.560;10.062;2022-08-19T15:14:51;24.50;99.90
9973;DHT22;5027;53.560;10.062;2022-08-19T15:17:22;24.50;99.90
9973;DHT22;5027;53.560;10.062;2022-08-19T15:20:10;24.50;99.90
9973;DHT22;5027;53.560;10.062;2022-08-19T15:22:37;24.50;99.90
9973;DHT22;5027;53.560;10.062;2022-08-19T15:25:06;24.50;99.90
9973;DHT22;5027;53.560;10.062;2022-08-19T15:27:33;24.50;99.90
9973;DHT22;5027;53.560;10.062;2022-08-19T15:30:00;24.50;99.90
9973;DHT22;5027;53.560;10.062;2022-08-19T15:32:27;24.50;99.90
9973;DHT22;5027;53.560;10.062;2022-08-19T15:34:55;24.50;99.90
9973;DHT22;5027;53.560;10.062;2022-08-19T15:37:22;24.50;99.90
9973;DHT22;5027;53.560;10.062;2022-08-19T15:39:49;24.50;99.90
9973;DHT22;5027;53.560;10.062;2022-08-19T15:42:16;24.50;99.90
9973;DHT22;5027;53.560;10.062;2022-08-19T15:44:55;24.50;99.90
9973;DHT22;5027;53.560;10.062;2022-08-19T15:47:30;24.50;99.90
9973;DHT22;5027;53.560;10.062;2022-08-19T15:50:06;24.50;99.90
9973;DHT22;5027;53.560;10.062;2022-08-19T15:52:59;24.50;99.90
9973;DHT22;5027;53.560;10.062;2022-08-19T15:55:28;24.50;99.90
9973;DHT22;5027;53.560;10.062;2022-08-19T15:58:02;24.50;99.90
9973;DHT22;5027;53.560;10.062;2022-08-19T16:00:57;24.50;99.90
9973;DHT22;5027;53.560;10.062;2022-08-19T16:03:49;24.50;99.90
9973;DHT22;5027;53.560;10.062;2022-08-19T16:06:45;24.50;99.90
9973;DHT22;5027;53.560;10.062;2022-08-19T16:09:13;24.50;99.90
9973;DHT22;5027;53.560;10.062;2022-08-19T16:11:41;24.50;99.90
9973;DHT22;5027;53.560;10.062;2022-08-19T16:14:15;24.40;99.90
9973;DHT22;5027;53.560;10.062;2022-08-19T16:16:43;24.50;99.90
9973;DHT22;5027;53.560;10.062;2022-08-19T16:19:16;24.40;99.90